createdAt,value
2019-02-24T00:02:15.236Z,92.70
2019-02-24T00:04:41.460Z,92.80
2019-02-24T00:07:07.669Z,92.80
2019-02-24T00:09:33.877Z,92.60
2019-02-24T00:12:00.122Z,92.40
2019-02-24T00:14:26.416Z,92.40
2019-02-24T00:16:52.628Z,92.30
2019-02-24T00:19:18.849Z,92.50
2019-02-24T00:21:45.057Z,92.50
2019-02-24T00:24:11.274Z,92.30
2019-02-24T00:26:37.500Z,92.20
2019-02-24T00:29:03.815Z,92.40
2019-02-24T00:31:30.022Z,92.30
2019-02-24T00:33:56.239Z,92.50
2019-02-24T00:36:22.450Z,92.30
2019-02-24T00:38:48.667Z,92.20
2019-02-24T00:41:14.985Z,92.10
2019-02-24T00:43:41.189Z,92.40
2019-02-24T00:46:07.408Z,92.40
2019-02-24T00:48:33.624Z,92.40
2019-02-24T00:51:00.461Z,92.40
2019-02-24T00:53:26.681Z,92.40
2019-02-24T00:55:52.969Z,92.40
2019-02-24T00:58:19.272Z,92.30
2019-02-24T01:00:45.485Z,92.20
2019-02-24T01:03:12.709Z,92.40
2019-02-24T01:05:38.925Z,92.50
2019-02-24T01:08:05.197Z,92.50
2019-02-24T01:10:31.421Z,92.50
2019-02-24T01:12:57.632Z,92.60
2019-02-24T01:15:23.853Z,92.30
2019-02-24T01:17:50.077Z,92.60
2019-02-24T01:20:16.294Z,92.80
2019-02-24T01:22:42.508Z,92.90
2019-02-24T01:25:08.833Z,92.90
2019-02-24T01:27:35.040Z,93.10
2019-02-24T01:30:01.253Z,92.60
2019-02-24T01:32:27.493Z,92.40
2019-02-24T01:34:53.729Z,92.20
2019-02-24T01:37:19.949Z,92.20
2019-02-24T01:39:46.172Z,92.30
2019-02-24T01:42:13.484Z,92.40
2019-02-24T01:44:39.701Z,92.60
2019-02-24T01:47:05.922Z,92.20
2019-02-24T01:49:32.233Z,92.20
2019-02-24T01:51:58.560Z,92.10
2019-02-24T01:54:24.885Z,91.80
2019-02-24T01:56:51.181Z,92.00
2019-02-24T01:59:17.392Z,92.00
2019-02-24T02:01:43.730Z,92.00
2019-02-24T02:04:10.045Z,92.00
2019-02-24T02:06:36.265Z,91.90
2019-02-24T02:09:04.092Z,91.80
2019-02-24T02:11:32.194Z,91.80
2019-02-24T02:13:58.406Z,91.80
2019-02-24T02:16:24.732Z,92.00
2019-02-24T02:18:50.946Z,92.20
2019-02-24T02:21:17.149Z,92.20
2019-02-24T02:23:43.379Z,92.30
2019-02-24T02:26:09.597Z,92.40
2019-02-24T02:28:43.836Z,92.50
2019-02-24T02:31:04.030Z,92.60
2019-02-24T02:33:30.344Z,92.50
2019-02-24T02:35:56.598Z,92.90
2019-02-24T02:38:22.829Z,92.30
2019-02-24T02:40:49.142Z,92.50
2019-02-24T02:43:15.357Z,92.60
2019-02-24T02:45:41.593Z,92.60
2019-02-24T02:48:07.804Z,92.60
2019-02-24T02:50:34.014Z,92.60
2019-02-24T02:53:00.246Z,92.70
2019-02-24T02:55:26.483Z,92.90
2019-02-24T02:57:52.798Z,92.80
2019-02-24T03:00:31.813Z,92.60
2019-02-24T03:02:58.024Z,92.60
2019-02-24T03:05:24.339Z,92.40
2019-02-24T03:07:52.488Z,92.20
2019-02-24T03:10:18.703Z,92.20
2019-02-24T03:12:44.915Z,92.10
2019-02-24T03:15:12.258Z,91.90
2019-02-24T03:17:38.468Z,92.10
2019-02-24T03:20:04.778Z,92.70
2019-02-24T03:22:30.998Z,92.60
2019-02-24T03:24:57.201Z,92.20
2019-02-24T03:27:23.464Z,91.90
2019-02-24T03:29:49.777Z,91.90
2019-02-24T03:32:15.993Z,92.00
2019-02-24T03:34:42.299Z,92.20
2019-02-24T03:37:08.529Z,92.40
2019-02-24T03:39:34.740Z,92.50
2019-02-24T03:42:01.025Z,92.60
2019-02-24T03:44:27.253Z,92.50
2019-02-24T03:46:53.466Z,92.60
2019-02-24T03:49:19.685Z,92.50
2019-02-24T03:51:45.904Z,92.30
2019-02-24T03:54:12.114Z,92.30
2019-02-24T03:56:38.333Z,92.20
2019-02-24T03:59:14.393Z,92.00
2019-02-24T04:01:32.678Z,91.70
2019-02-24T04:03:58.894Z,91.70
2019-02-24T04:06:25.216Z,91.50
2019-02-24T04:08:51.420Z,91.70
2019-02-24T04:11:17.626Z,91.90
2019-02-24T04:13:43.869Z,91.80
2019-02-24T04:16:10.093Z,91.60
2019-02-24T04:18:36.302Z,91.60
2019-02-24T04:21:02.524Z,91.50
2019-02-24T04:23:28.741Z,91.90
2019-02-24T04:25:55.057Z,92.20
2019-02-24T04:28:21.277Z,92.40
2019-02-24T04:30:47.496Z,92.50
2019-02-24T04:33:13.715Z,93.00
2019-02-24T04:35:39.941Z,93.00
2019-02-24T04:38:06.148Z,92.80
2019-02-24T04:40:32.365Z,92.80
2019-02-24T04:42:58.660Z,92.60
2019-02-24T04:45:24.865Z,92.60
2019-02-24T04:47:51.084Z,92.50
2019-02-24T04:50:17.319Z,92.80
2019-02-24T04:52:43.539Z,92.80
2019-02-24T04:55:09.840Z,93.00
2019-02-24T04:57:36.063Z,93.10
2019-02-24T05:00:03.993Z,93.10
2019-02-24T05:02:31.300Z,93.30
2019-02-24T05:04:57.652Z,93.40
2019-02-24T05:07:23.868Z,93.20
2019-02-24T05:09:50.090Z,93.10
2019-02-24T05:12:16.429Z,93.10
2019-02-24T05:14:42.656Z,93.00
2019-02-24T05:17:08.873Z,93.00
2019-02-24T05:19:35.196Z,93.00
2019-02-24T05:22:01.397Z,92.90
2019-02-24T05:24:27.733Z,92.80
2019-02-24T05:26:53.949Z,92.90
2019-02-24T05:29:20.556Z,93.00
2019-02-24T05:31:46.891Z,93.00
2019-02-24T05:34:13.128Z,93.10
2019-02-24T05:36:39.344Z,93.30
2019-02-24T05:39:05.544Z,93.40
2019-02-24T05:41:31.771Z,93.60
2019-02-24T05:43:58.143Z,93.70
2019-02-24T05:46:24.453Z,93.80
2019-02-24T05:48:50.683Z,93.80
2019-02-24T05:51:16.890Z,93.90
2019-02-24T05:53:43.110Z,94.00
2019-02-24T05:56:09.352Z,94.00
2019-02-24T05:58:35.565Z,93.90
2019-02-24T06:01:01.781Z,93.90
2019-02-24T06:03:28.057Z,93.70
2019-02-24T06:05:54.381Z,94.00
2019-02-24T06:08:20.677Z,94.40
2019-02-24T06:10:46.896Z,94.30
2019-02-24T06:13:13.104Z,93.80
2019-02-24T06:15:39.333Z,93.80
2019-02-24T06:18:05.652Z,93.40
2019-02-24T06:20:31.980Z,93.20
2019-02-24T06:22:58.296Z,93.00
2019-02-24T06:25:24.549Z,93.10
2019-02-24T06:27:50.933Z,93.10
2019-02-24T06:30:17.145Z,92.90
2019-02-24T06:32:43.373Z,92.70
2019-02-24T06:35:09.692Z,92.40
2019-02-24T06:37:35.910Z,92.30
2019-02-24T06:40:03.037Z,92.60
2019-02-24T06:42:29.245Z,92.80
2019-02-24T06:44:55.458Z,92.80
2019-02-24T06:47:21.685Z,92.80
2019-02-24T06:49:47.890Z,92.90
2019-02-24T06:52:14.102Z,93.20
2019-02-24T06:54:40.320Z,92.80
2019-02-24T06:57:06.532Z,93.00
2019-02-24T06:59:32.763Z,93.40
2019-02-24T07:01:59.088Z,93.30
2019-02-24T07:04:25.304Z,93.10
2019-02-24T07:06:51.515Z,93.00
2019-02-24T07:09:19.066Z,92.90
2019-02-24T07:11:45.549Z,93.10
2019-02-24T07:14:11.768Z,92.90
2019-02-24T07:16:38.997Z,92.90
2019-02-24T07:19:05.217Z,92.70
2019-02-24T07:21:31.434Z,92.40
2019-02-24T07:23:57.677Z,92.30
2019-02-24T07:26:23.888Z,92.10
2019-02-24T07:28:50.104Z,91.60
2019-02-24T07:31:16.340Z,91.50
2019-02-24T07:33:42.552Z,91.40
2019-02-24T07:36:09.868Z,91.00
2019-02-24T07:38:36.093Z,90.60
2019-02-24T07:41:02.305Z,90.50
2019-02-24T07:43:28.528Z,90.50
2019-02-24T07:45:54.753Z,90.70
2019-02-24T07:48:20.966Z,90.50
2019-02-24T07:50:47.185Z,90.30
2019-02-24T07:53:13.416Z,90.30
2019-02-24T07:55:39.633Z,89.30
2019-02-24T07:58:05.841Z,88.70
2019-02-24T08:00:32.674Z,88.70
2019-02-24T08:02:59.081Z,88.60
2019-02-24T08:05:25.301Z,88.60
2019-02-24T08:07:51.640Z,88.40
2019-02-24T08:10:17.865Z,86.90
2019-02-24T08:12:44.087Z,88.40
2019-02-24T08:15:10.313Z,90.10
2019-02-24T08:17:36.526Z,90.20
2019-02-24T08:20:06.054Z,89.70
2019-02-24T08:22:32.269Z,88.00
2019-02-24T08:24:58.486Z,86.50
2019-02-24T08:27:24.709Z,87.30
2019-02-24T08:29:51.773Z,90.00
2019-02-24T08:32:17.998Z,89.70
2019-02-24T08:34:44.216Z,87.20
2019-02-24T08:37:10.460Z,85.30
2019-02-24T08:39:36.684Z,84.90
2019-02-24T08:42:02.903Z,85.30
2019-02-24T08:44:29.138Z,85.50
2019-02-24T08:46:55.353Z,86.10
2019-02-24T08:49:21.573Z,87.00
2019-02-24T08:51:47.900Z,87.20
2019-02-24T08:54:14.124Z,87.10
2019-02-24T08:56:40.383Z,86.40
2019-02-24T08:59:07.665Z,86.40
2019-02-24T09:01:33.877Z,86.40
2019-02-24T09:04:00.097Z,86.30
2019-02-24T09:06:26.334Z,85.90
2019-02-24T09:08:53.220Z,86.00
2019-02-24T09:11:19.685Z,86.00
2019-02-24T09:13:45.928Z,84.80
2019-02-24T09:16:12.136Z,84.70
2019-02-24T09:18:38.372Z,85.20
2019-02-24T09:21:04.871Z,85.60
2019-02-24T09:23:31.229Z,86.60
2019-02-24T09:25:58.372Z,87.60
2019-02-24T09:28:24.644Z,89.00
2019-02-24T09:31:00.159Z,90.40
2019-02-24T09:33:19.182Z,90.80
2019-02-24T09:35:45.868Z,91.00
2019-02-24T09:38:14.393Z,91.30
2019-02-24T09:40:40.598Z,90.20
2019-02-24T09:43:07.022Z,90.00
2019-02-24T09:45:35.271Z,88.20
2019-02-24T09:48:04.166Z,89.20
2019-02-24T09:50:30.559Z,87.10
2019-02-24T09:52:57.859Z,88.00
2019-02-24T09:55:26.395Z,87.00
2019-02-24T09:57:52.846Z,86.30
2019-02-24T10:00:19.112Z,86.70
2019-02-24T10:02:45.445Z,87.90
2019-02-24T10:05:13.609Z,90.60
2019-02-24T10:07:39.849Z,90.80
2019-02-24T10:10:13.241Z,90.20
2019-02-24T10:12:41.399Z,90.00
2019-02-24T10:15:12.438Z,90.80
2019-02-24T10:17:38.649Z,90.10
2019-02-24T10:20:07.695Z,83.70
2019-02-24T10:22:34.006Z,79.90
2019-02-24T10:25:00.323Z,78.50
2019-02-24T10:27:26.633Z,78.20
2019-02-24T10:29:52.853Z,80.00
2019-02-24T10:32:19.069Z,81.00
2019-02-24T10:34:45.293Z,81.80
2019-02-24T10:37:11.497Z,82.80
2019-02-24T10:39:37.713Z,83.90
2019-02-24T10:42:03.979Z,84.30
2019-02-24T10:44:30.198Z,84.10
2019-02-24T10:46:56.420Z,85.10
2019-02-24T10:49:22.644Z,83.70
2019-02-24T10:51:48.853Z,83.30
2019-02-24T10:54:15.073Z,83.00
2019-02-24T10:56:41.300Z,82.20
2019-02-24T10:59:07.520Z,81.60
2019-02-24T11:01:33.749Z,80.70
2019-02-24T11:03:59.974Z,81.10
2019-02-24T11:06:26.189Z,80.10
2019-02-24T11:08:52.401Z,80.00
2019-02-24T11:11:18.649Z,80.40
2019-02-24T11:13:45.964Z,80.80
2019-02-24T11:16:13.282Z,81.20
2019-02-24T11:18:39.601Z,81.80
2019-02-24T11:21:05.917Z,81.60
2019-02-24T11:23:32.131Z,81.40
2019-02-24T11:25:58.352Z,80.00
2019-02-24T11:28:24.560Z,79.10
2019-02-24T11:30:50.764Z,79.90
2019-02-24T11:33:17.085Z,78.50
2019-02-24T11:35:43.305Z,78.20
2019-02-24T11:38:09.522Z,77.80
2019-02-24T11:40:35.736Z,78.40
2019-02-24T11:43:01.940Z,77.20
2019-02-24T11:45:28.154Z,76.80
2019-02-24T11:47:54.399Z,75.90
2019-02-24T11:50:20.613Z,72.80
2019-02-24T11:52:46.933Z,69.50
2019-02-24T11:55:13.253Z,66.20
2019-02-24T11:57:39.475Z,65.70
2019-02-24T12:00:11.217Z,64.60
2019-02-24T12:02:37.451Z,63.80
2019-02-24T12:05:05.466Z,62.80
2019-02-24T12:07:31.893Z,63.10
2019-02-24T12:09:58.140Z,62.20
2019-02-24T12:12:24.346Z,59.60
2019-02-24T12:14:50.555Z,55.20
2019-02-24T12:17:16.785Z,56.10
2019-02-24T12:19:43.001Z,55.90
2019-02-24T12:22:09.313Z,57.70
2019-02-24T12:24:35.548Z,58.00
2019-02-24T12:27:01.859Z,52.50
2019-02-24T12:29:28.064Z,52.60
2019-02-24T12:31:56.628Z,54.20
2019-02-24T12:34:22.430Z,51.90
2019-02-24T12:36:48.645Z,52.10
2019-02-24T12:39:14.868Z,49.50
2019-02-24T12:41:41.089Z,51.20
2019-02-24T12:44:07.308Z,52.00
2019-02-24T12:46:33.537Z,52.30
2019-02-24T12:48:59.745Z,51.10
2019-02-24T12:51:25.953Z,51.30
2019-02-24T12:53:52.168Z,51.80
2019-02-24T12:56:18.384Z,51.00
2019-02-24T12:58:45.697Z,51.50
2019-02-24T13:01:11.919Z,49.80
2019-02-24T13:03:38.229Z,49.70
2019-02-24T13:06:04.455Z,48.50
2019-02-24T13:08:30.765Z,46.70
2019-02-24T13:10:56.984Z,46.90
2019-02-24T13:13:23.188Z,46.10
2019-02-24T13:15:49.414Z,46.30
2019-02-24T13:18:15.625Z,46.60
2019-02-24T13:20:41.829Z,45.20
2019-02-24T13:23:08.059Z,42.80
2019-02-24T13:25:35.373Z,43.80
2019-02-24T13:28:01.585Z,44.00
2019-02-24T13:30:27.832Z,40.90
2019-02-24T13:32:54.235Z,39.40
2019-02-24T13:35:20.436Z,40.70
2019-02-24T13:37:46.665Z,40.90
2019-02-24T13:40:14.281Z,39.50
2019-02-24T13:42:40.897Z,39.60
2019-02-24T13:45:10.234Z,38.10
2019-02-24T13:47:36.441Z,37.40
2019-02-24T13:50:03.748Z,40.40
2019-02-24T13:52:30.845Z,42.90
2019-02-24T13:54:57.069Z,43.90
2019-02-24T13:57:23.291Z,38.40
2019-02-24T13:59:49.529Z,38.00
2019-02-24T14:02:23.584Z,38.00
2019-02-24T14:04:43.869Z,41.00
2019-02-24T14:07:10.096Z,37.30
2019-02-24T14:09:36.309Z,38.50
2019-02-24T14:12:02.523Z,37.10
2019-02-24T14:14:28.785Z,36.20
2019-02-24T14:16:54.993Z,36.60
2019-02-24T14:19:21.205Z,37.10
2019-02-24T14:21:47.509Z,36.60
2019-02-24T14:24:13.813Z,37.50
2019-02-24T14:26:41.177Z,35.50
2019-02-24T14:29:07.449Z,38.00
2019-02-24T14:31:33.669Z,37.30
2019-02-24T14:33:59.881Z,37.20
2019-02-24T14:36:26.114Z,38.20
2019-02-24T14:38:52.321Z,37.30
2019-02-24T14:41:18.540Z,36.00
2019-02-24T14:43:44.761Z,35.30
2019-02-24T14:46:12.183Z,35.40
2019-02-24T14:48:38.397Z,35.70
2019-02-24T14:51:04.722Z,35.10
2019-02-24T14:53:30.929Z,33.80
2019-02-24T14:55:57.153Z,35.10
2019-02-24T14:58:23.376Z,34.10
2019-02-24T15:00:49.609Z,34.20
2019-02-24T15:03:15.837Z,33.40
2019-02-24T15:05:42.073Z,33.60
2019-02-24T15:08:08.289Z,34.70
2019-02-24T15:10:34.516Z,37.40
2019-02-24T15:13:01.742Z,38.40
2019-02-24T15:15:33.075Z,40.50
2019-02-24T15:17:57.880Z,38.90
2019-02-24T15:20:24.213Z,38.00
2019-02-24T15:22:50.425Z,35.30
2019-02-24T15:25:17.045Z,32.60
2019-02-24T15:27:43.466Z,32.50
2019-02-24T15:30:25.460Z,32.90
2019-02-24T15:32:52.194Z,34.40
2019-02-24T15:35:28.204Z,33.00
2019-02-24T15:37:54.532Z,32.70
2019-02-24T15:40:20.753Z,32.80
2019-02-24T15:42:46.972Z,33.30
2019-02-24T15:45:13.635Z,32.20
2019-02-24T15:47:39.853Z,33.00
2019-02-24T15:50:08.873Z,32.70
2019-02-24T15:52:35.097Z,33.80
2019-02-24T15:55:01.316Z,35.20
2019-02-24T15:57:27.536Z,35.10
2019-02-24T15:59:53.768Z,36.60
2019-02-24T16:02:19.978Z,35.70
2019-02-24T16:04:46.201Z,34.80
2019-02-24T16:07:12.429Z,34.80
2019-02-24T16:09:38.635Z,36.70
2019-02-24T16:12:04.966Z,38.70
2019-02-24T16:14:31.210Z,38.50
2019-02-24T16:16:57.432Z,39.40
2019-02-24T16:19:23.648Z,38.30
2019-02-24T16:21:49.880Z,38.90
2019-02-24T16:24:16.100Z,37.30
2019-02-24T16:26:42.326Z,38.20
2019-02-24T16:29:08.556Z,40.30
2019-02-24T16:31:34.773Z,38.00
2019-02-24T16:34:00.985Z,36.60
2019-02-24T16:36:27.212Z,37.40
2019-02-24T16:38:53.429Z,39.30
2019-02-24T16:41:19.757Z,40.80
2019-02-24T16:43:46.077Z,39.30
2019-02-24T16:46:12.288Z,39.40
2019-02-24T16:48:38.508Z,40.00
2019-02-24T16:51:04.736Z,40.80
2019-02-24T16:53:30.957Z,39.50
2019-02-24T16:55:57.177Z,39.60
2019-02-24T16:58:23.519Z,39.90
2019-02-24T17:00:49.733Z,40.00
2019-02-24T17:03:19.817Z,39.60
2019-02-24T17:05:44.094Z,40.50
2019-02-24T17:08:10.305Z,41.60
2019-02-24T17:10:36.541Z,43.20
2019-02-24T17:13:02.841Z,45.70
2019-02-24T17:15:29.061Z,47.80
2019-02-24T17:17:55.273Z,47.20
2019-02-24T17:20:23.328Z,48.70
2019-02-24T17:22:49.533Z,49.20
2019-02-24T17:25:15.846Z,49.00
2019-02-24T17:27:42.072Z,49.30
2019-02-24T17:30:13.739Z,52.00
2019-02-24T17:32:39.948Z,53.30
2019-02-24T17:35:06.973Z,52.40
2019-02-24T17:37:33.281Z,51.90
2019-02-24T17:39:59.497Z,54.10
2019-02-24T17:42:25.724Z,52.30
2019-02-24T17:44:51.937Z,52.30
2019-02-24T17:47:18.225Z,52.00
2019-02-24T17:49:44.449Z,51.50
2019-02-24T17:52:10.737Z,51.40
2019-02-24T17:54:36.964Z,51.20
2019-02-24T17:57:03.193Z,51.70
2019-02-24T17:59:29.413Z,52.20
2019-02-24T18:01:55.632Z,51.50
2019-02-24T18:04:21.873Z,51.40
2019-02-24T18:06:48.092Z,52.30
2019-02-24T18:09:14.313Z,53.40
2019-02-24T18:11:40.537Z,53.90
2019-02-24T18:14:06.761Z,54.60
2019-02-24T18:16:32.978Z,55.30
2019-02-24T18:19:00.207Z,57.00
2019-02-24T18:21:26.429Z,56.30
2019-02-24T18:23:52.725Z,56.00
2019-02-24T18:26:20.049Z,55.20
2019-02-24T18:28:46.269Z,57.20
2019-02-24T18:31:12.497Z,58.00
2019-02-24T18:33:38.729Z,58.90
2019-02-24T18:36:04.937Z,60.20
2019-02-24T18:38:31.241Z,59.90
2019-02-24T18:40:57.464Z,59.10
2019-02-24T18:43:23.693Z,58.80
2019-02-24T18:45:49.900Z,58.60
2019-02-24T18:48:16.165Z,59.00
2019-02-24T18:50:42.381Z,58.60
2019-02-24T18:53:08.621Z,59.30
2019-02-24T18:55:34.909Z,59.40
2019-02-24T18:58:01.121Z,59.80
2019-02-24T19:00:27.437Z,60.00
2019-02-24T19:02:55.014Z,62.10
2019-02-24T19:05:21.600Z,64.10
2019-02-24T19:07:47.817Z,63.20
2019-02-24T19:10:18.649Z,62.30
2019-02-24T19:12:44.865Z,65.70
2019-02-24T19:15:13.481Z,64.10
2019-02-24T19:17:39.716Z,60.70
2019-02-24T19:20:09.229Z,60.30
2019-02-24T19:22:35.442Z,59.90
2019-02-24T19:25:01.779Z,61.50
2019-02-24T19:27:28.094Z,63.10
2019-02-24T19:29:54.322Z,63.00
2019-02-24T19:32:20.558Z,60.60
2019-02-24T19:34:46.777Z,58.30
2019-02-24T19:37:12.996Z,58.10
2019-02-24T19:39:39.225Z,58.00
2019-02-24T19:42:05.438Z,58.70
2019-02-24T19:44:31.690Z,59.20
2019-02-24T19:46:57.925Z,56.20
2019-02-24T19:49:24.141Z,57.30
2019-02-24T19:51:50.351Z,56.80
2019-02-24T19:54:16.576Z,56.00
2019-02-24T19:56:42.799Z,54.40
2019-02-24T19:59:09.027Z,56.10
2019-02-24T20:01:35.250Z,58.60
2019-02-24T20:04:01.473Z,55.60
2019-02-24T20:06:27.685Z,56.20
2019-02-24T20:08:53.918Z,58.40
2019-02-24T20:11:20.137Z,59.70
2019-02-24T20:13:46.361Z,61.40
2019-02-24T20:16:12.593Z,61.10
2019-02-24T20:18:38.817Z,62.20
2019-02-24T20:21:05.032Z,61.80
2019-02-24T20:23:31.289Z,62.70
2019-02-24T20:25:57.516Z,64.30
2019-02-24T20:28:23.738Z,65.10
2019-02-24T20:30:49.957Z,64.00
2019-02-24T20:33:16.267Z,62.80
2019-02-24T20:35:42.469Z,63.20
2019-02-24T20:38:08.697Z,64.00
2019-02-24T20:40:35.910Z,61.00
2019-02-24T20:43:02.116Z,63.50
2019-02-24T20:45:29.380Z,63.50
2019-02-24T20:47:55.861Z,60.20
2019-02-24T20:50:31.014Z,61.40
2019-02-24T20:52:57.229Z,63.30
2019-02-24T20:55:23.441Z,63.80
2019-02-24T20:57:49.684Z,61.40
2019-02-24T21:00:36.556Z,58.30
2019-02-24T21:03:02.791Z,55.00
2019-02-24T21:05:30.101Z,55.60
2019-02-24T21:07:56.323Z,54.00
2019-02-24T21:10:22.544Z,54.10
2019-02-24T21:12:48.857Z,57.50
2019-02-24T21:15:16.172Z,61.30
2019-02-24T21:17:42.509Z,63.00
2019-02-24T21:20:15.375Z,61.00
2019-02-24T21:22:41.697Z,58.10
2019-02-24T21:25:07.925Z,57.50
2019-02-24T21:27:34.137Z,57.90
2019-02-24T21:30:00.398Z,61.10
2019-02-24T21:32:26.633Z,63.10
2019-02-24T21:34:52.941Z,64.00
2019-02-24T21:37:19.257Z,61.80
2019-02-24T21:39:45.474Z,62.80
2019-02-24T21:42:11.701Z,64.90
2019-02-24T21:44:37.921Z,65.00
2019-02-24T21:47:04.141Z,66.50
2019-02-24T21:49:30.360Z,64.40
2019-02-24T21:51:56.672Z,64.00
2019-02-24T21:54:22.964Z,63.20
2019-02-24T21:56:49.164Z,63.40
2019-02-24T21:59:15.386Z,64.80
2019-02-24T22:01:41.700Z,67.50
2019-02-24T22:04:07.912Z,67.80
2019-02-24T22:06:34.125Z,67.40
2019-02-24T22:09:00.345Z,66.40
2019-02-24T22:11:26.557Z,65.40
2019-02-24T22:13:52.781Z,63.80
2019-02-24T22:16:19.010Z,61.50
2019-02-24T22:18:45.224Z,62.90
2019-02-24T22:21:11.440Z,64.50
2019-02-24T22:23:37.764Z,65.10
2019-02-24T22:26:03.973Z,65.60
2019-02-24T22:28:30.185Z,63.80
2019-02-24T22:30:56.419Z,61.60
2019-02-24T22:33:22.630Z,63.30
2019-02-24T22:35:49.144Z,61.60
2019-02-24T22:38:15.368Z,62.50
2019-02-24T22:40:41.648Z,66.20
2019-02-24T22:43:07.853Z,67.50
2019-02-24T22:45:34.093Z,68.10
2019-02-24T22:48:00.317Z,68.60
2019-02-24T22:50:26.537Z,69.20
2019-02-24T22:52:52.805Z,69.80
2019-02-24T22:55:19.029Z,70.10
2019-02-24T22:57:45.253Z,70.70
2019-02-24T23:00:53.348Z,69.20
2019-02-24T23:03:27.024Z,69.50
2019-02-24T23:05:53.328Z,69.10
2019-02-24T23:08:19.729Z,69.70
2019-02-24T23:10:46.437Z,69.00
2019-02-24T23:13:12.665Z,68.90
2019-02-24T23:15:38.904Z,67.10
2019-02-24T23:18:05.117Z,68.30
2019-02-24T23:20:32.426Z,68.00
2019-02-24T23:22:58.652Z,68.10
2019-02-24T23:25:24.867Z,69.00
2019-02-24T23:27:51.173Z,69.20
2019-02-24T23:30:17.742Z,69.50
2019-02-24T23:32:43.949Z,68.90
2019-02-24T23:35:10.156Z,69.90
2019-02-24T23:37:36.508Z,68.90
2019-02-24T23:40:04.909Z,69.30
2019-02-24T23:42:30.992Z,68.00
2019-02-24T23:44:57.230Z,66.00
2019-02-24T23:47:23.441Z,65.40
2019-02-24T23:49:49.661Z,65.60
2019-02-24T23:52:15.889Z,65.20
2019-02-24T23:54:42.105Z,64.70
2019-02-24T23:57:08.336Z,65.80
2019-02-24T23:59:34.581Z,68.40
